Abbott, Pennsylvania
Current Conditions -  °F | °C
As of 4:55 PM on Monday 22 Dec 2014 (Local Time) from KN38 Reporting Station
Overcast Overcast  
Wind Chill: 22°   Ceiling: 1900
Heat Index: 28°   Visibility: 10mi
Dew Point: 23°   Wind: 6mph
Humidity: 80%   Direction: 130°SE
Pressure: 30.11"   Gusts: NA
Location:  41.6755°N, 77.7071°W
Report Text: KN38 222155Z AUTO 13005KT 10SM OVC019 M02/M05 A3011 RMK AO2
Loading
Personal Weather Stations






























Interactive Weather Map New forecast layout! Learn more

10-Day Weather Forecast

Advertisements
Track Severe Weather on mobile